Time;durP1;ratioP1;P1;durP2;ratioP2;P2;SDS_P1;SDS_P2;PMS_P1;PMS_P2;Temp;Humidity;BMP_temperature;BMP_pressure;BME280_temperature;BME280_humidity;BME280_pressure;Samples;Min_cycle;Max_cycle;Signal;HPM_P1;HPM_P2
2022/01/11 00:02:09;;;;;;;94.15;61.08;;;-1.50;1.00;;;;;;5041449;28;20228;-81
2022/01/11 00:04:36;;;;;;;97.40;63.30;;;-1.60;1.00;;;;;;5039847;28;20226;-81
2022/01/11 00:07:06;;;;;;;91.60;61.75;;;-1.60;1.00;;;;;;5035680;28;20237;-80
2022/01/11 00:09:39;;;;;;;96.05;64.10;;;-1.60;1.00;;;;;;5035861;28;20234;-81
2022/01/11 00:12:10;;;;;;;104.57;66.60;;;-1.60;1.00;;;;;;5036837;28;20211;-80
2022/01/11 00:14:38;;;;;;;89.88;59.47;;;-1.70;1.00;;;;;;5036406;28;20238;-80
2022/01/11 00:17:07;;;;;;;99.82;62.92;;;-1.70;1.00;;;;;;5033812;28;20237;-80
2022/01/11 00:19:35;;;;;;;96.82;60.58;;;-1.60;1.00;;;;;;5040229;28;20302;-80
2022/01/11 00:22:06;;;;;;;95.90;60.90;;;-1.60;1.00;;;;;;5036546;28;20249;-81
2022/01/11 00:24:33;;;;;;;94.43;62.67;;;-1.50;1.00;;;;;;5034739;28;20226;-81
2022/01/11 00:27:02;;;;;;;92.15;64.70;;;-1.50;1.00;;;;;;5037099;28;20316;-80
2022/01/11 00:29:31;;;;;;;100.70;66.80;;;-1.50;1.00;;;;;;5032698;28;20230;-82
2022/01/11 00:32:03;;;;;;;97.18;64.57;;;-1.50;1.00;;;;;;5034404;28;20226;-80
2022/01/11 00:34:40;;;;;;;101.78;63.28;;;-1.50;1.00;;;;;;5034126;28;20769;-80
2022/01/11 00:37:08;;;;;;;104.43;66.10;;;-1.50;1.00;;;;;;5029457;28;20221;-80
2022/01/11 00:39:41;;;;;;;111.45;67.18;;;-1.50;1.00;;;;;;5035256;28;21144;-79
2022/01/11 00:42:09;;;;;;;108.53;66.32;;;-1.50;1.00;;;;;;5031115;28;20249;-81
2022/01/11 00:44:36;;;;;;;114.85;66.30;;;-1.50;1.00;;;;;;5032893;28;20210;-80
2022/01/11 00:47:04;;;;;;;107.90;63.45;;;-1.50;1.00;;;;;;5037571;28;20399;-80
2022/01/11 00:49:34;;;;;;;109.47;68.30;;;-1.50;1.00;;;;;;5050404;28;20229;-80
2022/01/11 00:52:01;;;;;;;102.63;64.95;;;-1.50;1.00;;;;;;5039692;28;20276;-79
2022/01/11 00:54:28;;;;;;;107.40;66.85;;;-1.60;1.00;;;;;;5038571;28;20221;-80
2022/01/11 00:56:55;;;;;;;105.28;69.25;;;-1.60;1.00;;;;;;5039312;28;20238;-81
2022/01/11 00:59:22;;;;;;;114.38;69.05;;;-1.60;1.00;;;;;;5036198;28;20221;-80
2022/01/11 01:01:49;;;;;;;112.25;71.90;;;-1.60;1.00;;;;;;5044782;28;20289;-79
2022/01/11 01:04:16;;;;;;;104.95;66.80;;;-1.60;1.00;;;;;;5049094;28;20225;-80
2022/01/11 01:06:45;;;;;;;116.97;69.78;;;-1.60;1.00;;;;;;5052331;28;20420;-79
2022/01/11 01:09:13;;;;;;;106.82;68.47;;;-1.70;1.00;;;;;;5038199;28;21118;-82
2022/01/11 01:11:43;;;;;;;122.20;72.68;;;-1.70;1.00;;;;;;5033824;28;20230;-82
2022/01/11 01:14:10;;;;;;;117.10;68.80;;;-1.60;1.00;;;;;;5037695;28;20797;-80
2022/01/11 01:16:37;;;;;;;110.55;64.85;;;-1.50;1.00;;;;;;5033615;28;20230;-79
2022/01/11 01:19:04;;;;;;;112.30;68.57;;;-1.50;1.00;;;;;;5038055;28;20241;-80
2022/01/11 01:21:36;;;;;;;114.22;70.10;;;-1.50;1.00;;;;;;5035317;28;20225;-80
2022/01/11 01:24:06;;;;;;;110.38;68.78;;;-1.50;1.00;;;;;;5035505;28;20269;-80
2022/01/11 01:26:33;;;;;;;110.95;66.72;;;-1.40;1.00;;;;;;5037440;28;20245;-78
2022/01/11 01:29:01;;;;;;;123.63;69.65;;;-1.40;1.00;;;;;;5037294;28;20231;-79
2022/01/11 01:31:28;;;;;;;109.38;64.03;;;-1.40;1.00;;;;;;5042229;28;20306;-80
2022/01/11 01:33:56;;;;;;;104.82;64.50;;;-1.40;1.00;;;;;;5034247;28;20238;-79
2022/01/11 01:36:23;;;;;;;100.10;60.72;;;-1.30;1.00;;;;;;5039443;28;20313;-79
2022/01/11 01:38:50;;;;;;;104.40;61.95;;;-1.30;1.00;;;;;;5034415;28;20226;-81
2022/01/11 01:41:21;;;;;;;105.57;63.08;;;-1.40;1.00;;;;;;5041047;28;20226;-79
2022/01/11 01:43:51;;;;;;;103.70;61.78;;;-1.50;1.00;;;;;;5040731;28;20217;-80
2022/01/11 01:46:18;;;;;;;101.45;61.13;;;-1.60;1.00;;;;;;5042144;28;21006;-80
2022/01/11 01:48:46;;;;;;;107.72;60.05;;;-1.60;1.00;;;;;;5033441;28;20265;-82
2022/01/11 01:51:13;;;;;;;105.95;59.60;;;-1.70;1.00;;;;;;5035750;28;20293;-79
2022/01/11 01:53:43;;;;;;;107.18;58.30;;;-1.60;1.00;;;;;;5039012;28;20214;-80
2022/01/11 01:56:11;;;;;;;102.82;58.55;;;-1.60;1.00;;;;;;5042237;28;20274;-81
2022/01/11 01:58:42;;;;;;;100.15;55.35;;;-1.50;1.00;;;;;;5026667;28;20260;-78
2022/01/11 02:01:12;;;;;;;106.82;58.70;;;-1.50;1.00;;;;;;5044708;28;20230;-81
2022/01/11 02:03:40;;;;;;;111.13;59.85;;;-1.60;1.00;;;;;;5032983;28;20230;-79
2022/01/11 02:06:08;;;;;;;103.28;60.80;;;-1.60;1.00;;;;;;5036001;28;20856;-80
2022/01/11 02:08:36;;;;;;;109.60;61.15;;;-1.60;1.00;;;;;;5032511;28;20332;-79
2022/01/11 02:11:03;;;;;;;103.75;56.40;;;-1.70;1.00;;;;;;5038664;28;20218;-81
2022/01/11 02:13:30;;;;;;;109.63;57.38;;;-1.60;1.00;;;;;;5042449;28;20215;-80
2022/01/11 02:15:59;;;;;;;97.88;56.40;;;-1.60;1.00;;;;;;5039335;28;20253;-79
2022/01/11 02:18:29;;;;;;;106.18;60.40;;;-1.60;1.00;;;;;;5034558;28;21047;-78
2022/01/11 02:20:59;;;;;;;104.28;57.63;;;-1.50;1.00;;;;;;5045585;28;20258;-80
2022/01/11 02:23:28;;;;;;;97.68;54.25;;;-1.50;1.00;;;;;;5030721;28;20230;-80
2022/01/11 02:25:59;;;;;;;101.50;59.13;;;-1.50;1.00;;;;;;5039558;28;20230;-80
2022/01/11 02:28:28;;;;;;;102.50;56.00;;;-1.40;1.00;;;;;;5041678;28;20222;-83
2022/01/11 02:30:57;;;;;;;99.15;55.47;;;-1.50;1.00;;;;;;5044081;28;20388;-80
2022/01/11 02:33:33;;;;;;;96.13;54.75;;;-1.50;1.00;;;;;;5039637;28;20225;-81
2022/01/11 02:36:04;;;;;;;98.45;52.05;;;-1.60;1.00;;;;;;5038365;28;21153;-80
2022/01/11 02:38:31;;;;;;;104.47;54.20;;;-1.60;1.00;;;;;;5036759;28;20706;-79
2022/01/11 02:40:59;;;;;;;98.85;51.35;;;-1.60;1.00;;;;;;5038433;28;20226;-80
2022/01/11 02:43:26;;;;;;;104.60;50.35;;;-1.60;1.00;;;;;;5037151;28;20228;-79
2022/01/11 02:45:53;;;;;;;88.90;48.67;;;-1.60;1.00;;;;;;5037147;28;20233;-79
2022/01/11 02:48:21;;;;;;;107.85;49.50;;;-1.60;1.00;;;;;;5039579;28;20643;-81
2022/01/11 02:50:48;;;;;;;96.85;49.60;;;-1.50;1.00;;;;;;5042711;28;20224;-82
2022/01/11 02:53:17;;;;;;;89.95;48.00;;;-1.60;1.00;;;;;;5039709;28;20226;-81
2022/01/11 02:55:45;;;;;;;93.40;51.50;;;-1.60;1.00;;;;;;5043150;28;20663;-80
2022/01/11 02:58:16;;;;;;;97.38;51.38;;;-1.60;1.00;;;;;;5053874;28;20229;-80
2022/01/11 03:00:43;;;;;;;100.25;52.08;;;-1.60;1.00;;;;;;5067318;28;20224;-79
2022/01/11 03:03:12;;;;;;;92.70;49.45;;;-1.50;1.00;;;;;;5063660;28;20237;-80
2022/01/11 03:05:46;;;;;;;91.50;49.22;;;-1.40;1.00;;;;;;5050758;28;20237;-83
2022/01/11 03:08:13;;;;;;;98.53;49.65;;;-1.40;1.00;;;;;;5056420;28;20249;-79
2022/01/11 03:10:42;;;;;;;95.10;51.35;;;-1.40;1.00;;;;;;5060228;28;20226;-80
2022/01/11 03:13:10;;;;;;;93.15;47.17;;;-1.40;1.00;;;;;;5058296;28;20265;-80
2022/01/11 03:15:38;;;;;;;96.18;49.30;;;-1.40;1.00;;;;;;5058945;28;20218;-80
2022/01/11 03:18:05;;;;;;;98.55;50.58;;;-1.40;1.00;;;;;;5060236;28;20221;-80
2022/01/11 03:20:32;;;;;;;97.10;50.20;;;-1.40;1.00;;;;;;5059363;28;20226;-79
2022/01/11 03:23:05;;;;;;;88.18;47.53;;;-1.40;1.00;;;;;;5060506;28;20230;-78
2022/01/11 03:25:34;;;;;;;88.22;46.08;;;-1.50;1.00;;;;;;5061083;28;20225;-80
2022/01/11 03:28:04;;;;;;;80.55;44.97;;;-1.50;1.00;;;;;;5062625;28;20222;-79
2022/01/11 03:30:33;;;;;;;83.15;43.25;;;-1.50;1.00;;;;;;5058817;28;20347;-82
2022/01/11 03:33:00;;;;;;;95.82;48.33;;;-1.50;1.00;;;;;;5057614;28;20210;-81
2022/01/11 03:35:29;;;;;;;86.50;45.97;;;-1.50;1.00;;;;;;5058613;28;20218;-79
2022/01/11 03:37:57;;;;;;;86.82;44.55;;;-1.40;1.00;;;;;;5064954;28;20297;-79
2022/01/11 03:40:30;;;;;;;79.95;42.17;;;-1.40;1.00;;;;;;5058507;28;20218;-79
2022/01/11 03:42:57;;;;;;;91.18;43.78;;;-1.40;1.00;;;;;;5059873;28;20209;-79
2022/01/11 03:45:26;;;;;;;88.82;45.75;;;-1.40;1.00;;;;;;5059382;28;20396;-80
2022/01/11 03:47:56;;;;;;;82.75;38.33;;;-1.40;1.00;;;;;;5062241;28;20238;-80
2022/01/11 03:50:24;;;;;;;83.75;44.85;;;-1.40;1.00;;;;;;5056554;28;20615;-80
2022/01/11 03:52:59;;;;;;;83.20;46.67;;;-1.30;1.00;;;;;;5054980;28;20234;-81
2022/01/11 03:55:44;;;;;;;84.43;43.15;;;-1.30;1.00;;;;;;5060786;28;20226;-80
2022/01/11 03:58:15;;;;;;;67.80;37.45;;;-1.30;1.00;;;;;;5053812;28;20238;-79
2022/01/11 04:00:45;;;;;;;74.40;40.47;;;-1.40;1.00;;;;;;5058338;28;20214;-78
2022/01/11 04:03:15;;;;;;;77.30;40.85;;;-1.50;1.00;;;;;;5059036;28;20254;-80
2022/01/11 04:05:43;;;;;;;83.57;42.55;;;-1.40;1.00;;;;;;5056219;28;20290;-80
2022/01/11 04:08:11;;;;;;;72.22;40.03;;;-1.40;1.00;;;;;;5058855;28;20234;-83
2022/01/11 04:10:39;;;;;;;72.13;39.20;;;-1.30;1.00;;;;;;5059895;28;20222;-79
2022/01/11 04:13:09;;;;;;;80.10;39.50;;;-1.20;1.00;;;;;;5051547;28;20237;-79
2022/01/11 04:15:36;;;;;;;70.72;37.38;;;-1.10;1.00;;;;;;5054652;28;20325;-80
2022/01/11 04:18:04;;;;;;;73.32;35.58;;;-1.00;1.00;;;;;;5053556;28;20230;-80
2022/01/11 04:20:31;;;;;;;77.70;39.92;;;-1.00;1.00;;;;;;5055833;28;20217;-80
2022/01/11 04:23:00;;;;;;;73.07;36.95;;;-1.00;1.00;;;;;;5057591;28;20269;-80
2022/01/11 04:25:27;;;;;;;68.45;36.00;;;-1.10;1.00;;;;;;5054552;28;20240;-79
2022/01/11 04:27:54;;;;;;;72.07;37.08;;;-1.20;1.00;;;;;;5047801;28;20302;-80
2022/01/11 04:30:21;;;;;;;66.45;36.38;;;-1.20;1.00;;;;;;5042680;28;20214;-79
2022/01/11 04:32:49;;;;;;;70.88;37.55;;;-1.20;1.00;;;;;;5043753;28;20230;-80
2022/01/11 04:35:18;;;;;;;67.93;37.53;;;-1.20;1.00;;;;;;5039249;28;20312;-80
2022/01/11 04:37:45;;;;;;;72.22;36.00;;;-1.30;1.00;;;;;;5037924;28;20277;-79
2022/01/11 04:40:19;;;;;;;65.85;36.20;;;-1.30;1.00;;;;;;5039347;28;20709;-80
2022/01/11 04:42:46;;;;;;;68.15;34.88;;;-1.30;1.00;;;;;;5039542;28;21036;-80
2022/01/11 04:45:14;;;;;;;76.47;38.08;;;-1.30;1.00;;;;;;5053021;28;20318;-80
2022/01/11 04:47:46;;;;;;;62.70;34.28;;;-1.30;1.00;;;;;;5041553;28;20215;-79
2022/01/11 04:50:14;;;;;;;76.57;36.70;;;-1.30;1.00;;;;;;5038413;28;20329;-79
2022/01/11 04:52:42;;;;;;;81.13;40.45;;;-1.30;1.00;;;;;;5046635;28;20228;-79
2022/01/11 04:55:10;;;;;;;74.82;38.55;;;-1.20;1.00;;;;;;5038253;28;20238;-79
2022/01/11 04:57:37;;;;;;;78.70;39.47;;;-1.20;1.00;;;;;;5042159;28;20224;-78
2022/01/11 05:00:05;;;;;;;71.32;38.10;;;-1.10;1.00;;;;;;5039890;28;20249;-79
2022/01/11 05:02:32;;;;;;;72.35;36.28;;;-1.10;1.00;;;;;;5040065;28;20245;-79
2022/01/11 05:04:59;;;;;;;70.05;36.17;;;-1.10;1.00;;;;;;5046944;28;20222;-79
2022/01/11 05:07:26;;;;;;;74.20;37.45;;;-1.20;1.00;;;;;;5045611;28;20282;-79
2022/01/11 05:09:55;;;;;;;68.38;34.20;;;-1.30;1.00;;;;;;5048661;28;21239;-79
2022/01/11 05:12:22;;;;;;;62.08;33.95;;;-1.30;1.00;;;;;;5047363;28;20274;-79
2022/01/11 05:14:49;;;;;;;71.13;38.33;;;-1.40;1.00;;;;;;5042368;28;20237;-80
2022/01/11 05:17:16;;;;;;;68.53;35.63;;;-1.40;1.00;;;;;;5054481;28;20221;-79
2022/01/11 05:19:44;;;;;;;65.85;36.75;;;-1.40;1.00;;;;;;5064605;28;20408;-79
2022/01/11 05:22:10;;;;;;;68.65;36.95;;;-1.30;1.00;;;;;;5062286;28;20241;-79
2022/01/11 05:24:37;;;;;;;78.07;38.53;;;-1.20;1.00;;;;;;5063318;28;20222;-80
2022/01/11 05:27:07;;;;;;;75.75;36.65;;;-1.10;1.00;;;;;;5067820;28;20257;-78
2022/01/11 05:29:34;;;;;;;67.82;35.75;;;-1.10;1.00;;;;;;5063499;28;20222;-79
2022/01/11 05:32:03;;;;;;;75.47;36.03;;;-1.00;1.00;;;;;;5066670;28;20254;-78
2022/01/11 05:34:32;;;;;;;65.40;36.53;;;-1.00;1.00;;;;;;5067535;28;20206;-78
2022/01/11 05:36:59;;;;;;;63.83;33.78;;;-1.00;1.00;;;;;;5061915;28;20221;-79
2022/01/11 05:39:26;;;;;;;68.40;35.38;;;-1.10;1.00;;;;;;5062972;28;20230;-78
2022/01/11 05:42:20;;;;;;;63.35;34.70;;;-1.20;1.00;;;;;;5061611;28;20229;-78
2022/01/11 05:45:14;;;;;;;63.70;33.28;;;-1.20;1.00;;;;;;5060795;28;20210;-77
2022/01/11 05:47:41;;;;;;;67.35;36.53;;;-1.20;1.00;;;;;;5060095;28;20257;-78
2022/01/11 05:50:10;;;;;;;66.20;33.10;;;-1.20;1.00;;;;;;5062125;28;20261;-79
2022/01/11 05:52:39;;;;;;;77.13;36.08;;;-1.20;1.00;;;;;;5062499;28;20895;-78
2022/01/11 05:55:09;;;;;;;60.88;33.58;;;-1.10;1.00;;;;;;5069272;28;20236;-78
2022/01/11 05:57:38;;;;;;;61.90;32.33;;;-1.20;1.00;;;;;;5067030;28;20214;-78
2022/01/11 06:00:08;;;;;;;68.10;35.30;;;-1.10;1.00;;;;;;5061874;28;20218;-78
2022/01/11 06:02:35;;;;;;;57.03;32.75;;;-1.10;1.00;;;;;;5071366;28;20222;-81
2022/01/11 06:05:02;;;;;;;69.32;35.47;;;-1.10;1.00;;;;;;5063507;28;20274;-82
2022/01/11 06:07:29;;;;;;;65.47;34.85;;;-1.10;1.00;;;;;;5067866;28;20349;-82
2022/01/11 06:09:59;;;;;;;63.40;35.60;;;-1.00;1.00;;;;;;5063716;28;20406;-82
2022/01/11 06:12:26;;;;;;;64.88;33.20;;;-1.00;1.00;;;;;;5066161;28;20225;-82
2022/01/11 06:14:55;;;;;;;73.45;35.60;;;-1.00;1.00;;;;;;5063594;28;20218;-82
2022/01/11 06:17:22;;;;;;;70.25;34.45;;;-1.10;1.00;;;;;;5065293;28;20214;-81
2022/01/11 06:19:50;;;;;;;67.95;35.53;;;-1.00;1.00;;;;;;5069574;28;20331;-80
2022/01/11 06:22:18;;;;;;;59.03;33.17;;;-1.00;1.00;;;;;;5063272;28;20281;-80
2022/01/11 06:24:45;;;;;;;65.57;34.78;;;-1.00;1.00;;;;;;5058321;28;20219;-81
2022/01/11 06:27:12;;;;;;;61.75;35.17;;;-1.00;1.00;;;;;;5070381;28;20218;-80
2022/01/11 06:32:18;;;;;;;63.53;34.28;;;-1.00;1.00;;;;;;5613025;23;20257;-83
2022/01/11 06:34:46;;;;;;;61.40;33.20;;;-1.00;1.00;;;;;;5031174;28;20390;-83
2022/01/11 06:37:13;;;;;;;64.28;34.08;;;-0.80;1.00;;;;;;5032984;28;20285;-83
2022/01/11 06:39:40;;;;;;;60.72;32.28;;;-0.60;1.00;;;;;;5022435;28;20538;-85
2022/01/11 06:42:10;;;;;;;62.50;34.03;;;-0.50;1.00;;;;;;5028633;28;20290;-83
2022/01/11 06:44:38;;;;;;;61.75;33.30;;;-0.60;1.00;;;;;;5033536;28;20237;-83
2022/01/11 06:47:06;;;;;;;61.63;32.95;;;-0.60;1.00;;;;;;5031654;28;20218;-83
2022/01/11 06:49:34;;;;;;;54.03;31.50;;;-0.60;1.00;;;;;;5025037;28;20231;-80
2022/01/11 06:52:02;;;;;;;62.05;32.15;;;-0.60;1.00;;;;;;5029168;28;20242;-79
2022/01/11 06:54:32;;;;;;;56.00;31.15;;;-0.60;1.00;;;;;;5023453;28;20218;-82
2022/01/11 06:56:59;;;;;;;48.95;28.27;;;-0.60;1.00;;;;;;5021364;28;20321;-81
2022/01/11 06:59:26;;;;;;;63.95;31.83;;;-0.60;1.00;;;;;;5006199;28;20274;-81
2022/01/11 07:01:53;;;;;;;61.03;29.67;;;-0.70;1.00;;;;;;5014752;28;20286;-79
2022/01/11 07:04:20;;;;;;;56.33;32.72;;;-0.80;1.00;;;;;;5018656;28;20254;-80
2022/01/11 07:06:48;;;;;;;56.38;30.90;;;-0.80;1.00;;;;;;5012974;28;20233;-78
2022/01/11 07:09:16;;;;;;;56.47;31.23;;;-0.80;1.00;;;;;;5008329;28;20232;-81
2022/01/11 07:11:45;;;;;;;59.53;30.77;;;-0.80;1.00;;;;;;5010502;28;20220;-78
2022/01/11 07:14:12;;;;;;;48.90;28.63;;;-0.80;1.00;;;;;;5013798;28;20240;-79
2022/01/11 07:16:39;;;;;;;56.88;30.98;;;-0.80;1.00;;;;;;5021025;28;20720;-78
2022/01/11 07:19:06;;;;;;;48.75;28.23;;;-0.80;1.00;;;;;;5015505;28;20231;-79
2022/01/11 07:21:35;;;;;;;52.13;27.80;;;-0.90;1.00;;;;;;5016885;28;20302;-80
2022/01/11 07:24:07;;;;;;;47.67;30.25;;;-1.00;1.00;;;;;;5010818;28;20228;-80
2022/01/11 07:26:34;;;;;;;51.70;27.98;;;-1.00;1.00;;;;;;5017606;28;20296;-79
2022/01/11 07:29:03;;;;;;;52.83;28.38;;;-1.00;1.00;;;;;;5013429;28;20219;-80
2022/01/11 07:31:30;;;;;;;52.10;27.40;;;-1.00;1.00;;;;;;5012023;28;20346;-80
2022/01/11 07:33:57;;;;;;;49.45;28.10;;;-0.90;1.00;;;;;;5012611;28;20229;-79
2022/01/11 07:36:24;;;;;;;45.03;26.70;;;-1.00;1.00;;;;;;5013860;28;20269;-82
2022/01/11 07:38:52;;;;;;;49.65;27.20;;;-1.10;1.00;;;;;;5013268;28;21476;-78
2022/01/11 07:41:22;;;;;;;49.45;27.90;;;-1.10;1.00;;;;;;5016732;28;20237;-79
2022/01/11 07:43:48;;;;;;;46.38;27.13;;;-1.10;1.00;;;;;;5038840;28;20226;-77
2022/01/11 07:46:16;;;;;;;41.30;26.02;;;-1.20;1.00;;;;;;5024436;28;20227;-78
2022/01/11 07:48:43;;;;;;;39.50;25.15;;;-1.20;1.00;;;;;;5028146;28;20286;-77
2022/01/11 07:51:14;;;;;;;45.55;27.45;;;-1.20;1.00;;;;;;5018431;28;20295;-80
2022/01/11 07:53:41;;;;;;;47.67;26.52;;;-1.30;1.00;;;;;;5007981;28;20225;-82
2022/01/11 07:56:08;;;;;;;40.90;25.88;;;-1.30;1.00;;;;;;5012047;28;20274;-80
2022/01/11 07:58:36;;;;;;;42.85;25.73;;;-1.20;1.00;;;;;;5012000;28;20245;-78
2022/01/11 08:01:03;;;;;;;48.67;24.85;;;-1.20;1.00;;;;;;5015219;28;20261;-79
2022/01/11 08:03:30;;;;;;;43.95;25.63;;;-1.30;1.00;;;;;;5012095;28;20790;-79
2022/01/11 08:05:59;;;;;;;40.75;27.05;;;-1.20;1.00;;;;;;5009718;28;20267;-81
2022/01/11 08:08:26;;;;;;;50.35;28.83;;;-1.20;1.00;;;;;;5003700;28;20277;-81
2022/01/11 08:10:55;;;;;;;45.38;27.77;;;-1.10;1.00;;;;;;5004915;28;21181;-81
2022/01/11 08:13:30;;;;;;;49.75;27.63;;;-1.00;1.00;;;;;;5015834;28;20322;-85
2022/01/11 08:16:02;;;;;;;47.20;27.70;;;-0.90;1.00;;;;;;4996582;28;20238;-82
2022/01/11 08:18:29;;;;;;;47.70;26.98;;;-0.90;1.00;;;;;;4998265;28;20238;-80
2022/01/11 08:20:56;;;;;;;47.95;28.63;;;-0.80;1.00;;;;;;5008429;28;20221;-84
2022/01/11 08:23:23;;;;;;;46.38;27.92;;;-0.80;1.00;;;;;;5007554;28;20219;-82
2022/01/11 08:25:50;;;;;;;47.95;26.52;;;-0.90;1.00;;;;;;5006233;28;20270;-82
2022/01/11 08:28:17;;;;;;;44.25;27.92;;;-0.90;1.00;;;;;;5002873;28;20322;-80
2022/01/11 08:30:45;;;;;;;44.72;27.15;;;-0.90;1.00;;;;;;5006294;28;20231;-80
2022/01/11 08:33:13;;;;;;;41.33;25.67;;;-0.90;1.00;;;;;;5001353;28;20320;-80
2022/01/11 08:35:40;;;;;;;41.65;23.27;;;-0.80;1.00;;;;;;5001814;28;20226;-80
2022/01/11 08:38:08;;;;;;;45.13;27.80;;;-0.80;1.00;;;;;;5001068;28;20277;-80
2022/01/11 08:40:36;;;;;;;47.53;25.67;;;-0.90;1.00;;;;;;5004179;28;20243;-79
2022/01/11 08:43:04;;;;;;;40.92;25.08;;;-0.80;1.00;;;;;;5000490;28;20263;-80
2022/01/11 08:45:33;;;;;;;43.33;26.20;;;-0.80;1.00;;;;;;5012780;28;20361;-80
2022/01/11 08:48:00;;;;;;;49.17;27.08;;;-0.80;1.00;;;;;;5023855;28;20226;-84
2022/01/11 08:50:29;;;;;;;42.95;25.27;;;-0.80;1.00;;;;;;5032948;28;20219;-82
2022/01/11 08:52:58;;;;;;;80.95;47.05;;;-0.70;1.00;;;;;;5031152;28;20231;-82
2022/01/11 08:55:25;;;;;;;45.25;26.10;;;-0.70;1.00;;;;;;5029645;28;20234;-84
2022/01/11 08:57:53;;;;;;;50.05;27.02;;;-0.60;1.00;;;;;;5027690;28;20247;-84
2022/01/11 09:00:20;;;;;;;47.88;27.80;;;-0.60;1.00;;;;;;5020152;28;20219;-78
2022/01/11 09:02:50;;;;;;;45.25;26.58;;;-0.60;1.00;;;;;;5021267;28;20278;-78
2022/01/11 09:05:19;;;;;;;44.15;25.17;;;-0.60;1.00;;;;;;5012973;28;20235;-78
2022/01/11 09:07:47;;;;;;;41.00;24.27;;;-0.50;1.00;;;;;;5018083;28;20282;-80
2022/01/11 09:10:19;;;;;;;44.50;27.48;;;-0.50;1.00;;;;;;5010543;28;20242;-80
2022/01/11 09:12:47;;;;;;;41.42;24.63;;;-0.50;1.00;;;;;;5002579;28;20637;-78
2022/01/11 09:15:14;;;;;;;45.17;25.83;;;-0.40;1.00;;;;;;5000006;28;20223;-79
2022/01/11 09:17:43;;;;;;;52.97;30.50;;;-0.40;1.00;;;;;;5001062;28;21191;-80
2022/01/11 09:20:13;;;;;;;43.63;27.55;;;-0.40;1.00;;;;;;4999101;28;20290;-79
2022/01/11 09:22:41;;;;;;;43.67;28.13;;;-0.40;1.00;;;;;;5000686;28;20755;-80
2022/01/11 09:25:11;;;;;;;47.30;26.42;;;-0.30;1.00;;;;;;5000753;28;20664;-80
2022/01/11 09:27:39;;;;;;;40.17;24.83;;;-0.20;1.00;;;;;;5002467;28;20224;-80
2022/01/11 09:30:08;;;;;;;51.13;27.48;;;-0.30;1.00;;;;;;4997108;28;21528;-82
2022/01/11 09:32:36;;;;;;;42.85;25.60;;;-0.20;1.00;;;;;;4997310;28;20227;-82
2022/01/11 09:35:04;;;;;;;41.92;23.45;;;-0.30;1.00;;;;;;4997904;28;20246;-80
2022/01/11 09:37:31;;;;;;;39.38;25.40;;;-0.40;1.00;;;;;;4999649;28;20246;-81
2022/01/11 09:39:58;;;;;;;45.83;25.67;;;-0.40;1.00;;;;;;5004108;28;20318;-79
2022/01/11 09:42:27;;;;;;;41.67;24.30;;;-0.30;1.00;;;;;;5018433;28;20223;-79
2022/01/11 09:44:58;;;;;;;40.58;25.70;;;-0.20;1.00;;;;;;5008136;28;20218;-80
2022/01/11 09:47:25;;;;;;;47.17;27.15;;;-0.30;1.00;;;;;;5008578;28;20227;-82
2022/01/11 09:49:53;;;;;;;42.92;26.15;;;-0.20;1.00;;;;;;5011245;28;20235;-83
2022/01/11 09:52:20;;;;;;;46.28;26.33;;;-0.10;1.00;;;;;;5003320;28;20247;-83
2022/01/11 09:54:51;;;;;;;42.95;25.85;;;-0.20;1.00;;;;;;5019580;28;20290;-82
2022/01/11 09:57:19;;;;;;;41.05;26.55;;;-0.20;1.00;;;;;;5005715;28;20238;-81
2022/01/11 09:59:48;;;;;;;39.45;25.15;;;-0.20;1.00;;;;;;5002324;28;20364;-83
2022/01/11 10:02:15;;;;;;;38.35;23.80;;;-0.20;1.00;;;;;;5003871;28;20226;-81
2022/01/11 10:04:44;;;;;;;46.72;25.05;;;-0.20;1.00;;;;;;5017735;28;20243;-80
2022/01/11 10:07:13;;;;;;;42.47;25.42;;;-0.20;1.00;;;;;;5025654;28;20295;-81
2022/01/11 10:09:47;;;;;;;39.78;25.10;;;-0.30;1.00;;;;;;5024545;28;20233;-80
2022/01/11 10:12:15;;;;;;;40.72;24.25;;;-0.20;1.00;;;;;;5006007;28;20226;-82
2022/01/11 10:14:49;;;;;;;42.60;25.25;;;-0.20;1.00;;;;;;5004028;28;20222;-82
2022/01/11 10:17:19;;;;;;;41.17;25.98;;;-0.10;1.00;;;;;;5002357;28;20230;-82
2022/01/11 10:19:50;;;;;;;70.68;44.40;;;-0.10;1.00;;;;;;5001646;28;20211;-82
2022/01/11 10:22:19;;;;;;;37.22;23.92;;;0.00;1.00;;;;;;5003183;28;20242;-81
2022/01/11 10:24:48;;;;;;;47.60;26.52;;;0.00;1.00;;;;;;5001749;28;20322;-83
2022/01/11 10:27:21;;;;;;;43.17;25.67;;;0.10;1.00;;;;;;5015525;28;20291;-82
2022/01/11 10:29:51;;;;;;;43.38;28.83;;;0.20;1.00;;;;;;5006729;28;20243;-83
2022/01/11 10:32:23;;;;;;;41.83;25.45;;;0.30;1.00;;;;;;5008617;28;20279;-83
2022/01/11 10:34:51;;;;;;;43.13;26.33;;;0.40;1.00;;;;;;5011063;28;20226;-82
2022/01/11 10:37:28;;;;;;;42.13;26.73;;;0.50;1.00;;;;;;5006705;28;20752;-83
2022/01/11 10:40:12;;;;;;;36.67;23.45;;;0.60;1.00;;;;;;5003726;28;20369;-84
2022/01/11 10:42:45;;;;;;;43.05;28.08;;;0.50;1.00;;;;;;5005093;28;20270;-84
2022/01/11 10:45:15;;;;;;;37.45;23.17;;;0.70;1.00;;;;;;5005327;28;20219;-84
2022/01/11 10:47:47;;;;;;;39.17;23.60;;;0.80;1.00;;;;;;5012594;28;21348;-83
2022/01/11 10:50:19;;;;;;;39.28;23.55;;;0.70;1.00;;;;;;5006589;28;20230;-83
2022/01/11 10:52:47;;;;;;;37.90;23.85;;;0.70;1.00;;;;;;5003884;28;20871;-83
2022/01/11 10:55:18;;;;;;;43.45;24.23;;;0.70;1.00;;;;;;5000021;28;20227;-80
2022/01/11 10:57:50;;;;;;;38.33;23.40;;;0.60;1.00;;;;;;5000858;28;20313;-80
2022/01/11 11:00:23;;;;;;;42.50;23.98;;;1.00;1.00;;;;;;5008214;28;20913;-82
2022/01/11 11:02:54;;;;;;;38.20;23.73;;;1.60;1.00;;;;;;4994939;28;20231;-79
2022/01/11 11:05:25;;;;;;;39.60;23.10;;;2.10;1.00;;;;;;4999337;28;20235;-78
2022/01/11 11:07:58;;;;;;;36.47;23.77;;;2.20;1.00;;;;;;4999623;28;20275;-78
2022/01/11 11:10:40;;;;;;;34.75;23.05;;;1.80;1.00;;;;;;4997311;28;20275;-79
2022/01/11 11:13:11;;;;;;;36.30;22.17;;;1.80;1.00;;;;;;5000669;28;20238;-79
2022/01/11 11:15:40;;;;;;;39.85;23.52;;;2.00;1.00;;;;;;5000771;28;20223;-79
2022/01/11 11:18:22;;;;;;;34.55;21.95;;;2.50;1.00;;;;;;4999598;28;20290;-77
2022/01/11 11:20:49;;;;;;;34.63;21.58;;;3.30;1.00;;;;;;5011937;28;20281;-77
2022/01/11 11:23:17;;;;;;;36.60;21.90;;;4.50;1.00;;;;;;5014397;28;20259;-78
2022/01/11 11:25:44;;;;;;;36.70;22.95;;;5.10;1.00;;;;;;5001910;28;20226;-79
2022/01/11 11:28:11;;;;;;;33.95;22.48;;;5.10;1.00;;;;;;4996646;28;20242;-80
2022/01/11 11:30:40;;;;;;;30.60;20.67;;;5.10;1.00;;;;;;5001451;28;21152;-80
2022/01/11 11:33:07;;;;;;;34.03;22.38;;;5.50;1.00;;;;;;4994017;28;20235;-80
2022/01/11 11:35:34;;;;;;;33.53;21.80;;;5.60;1.00;;;;;;4998776;28;20345;-79
2022/01/11 11:38:06;;;;;;;36.50;21.23;;;5.70;1.00;;;;;;4990253;28;20360;-79
2022/01/11 11:40:35;;;;;;;32.15;21.55;;;5.70;1.00;;;;;;4998186;28;20219;-80
2022/01/11 11:43:04;;;;;;;34.38;24.17;;;5.60;1.00;;;;;;4999984;28;20898;-79
2022/01/11 11:45:37;;;;;;;36.15;26.52;;;5.30;1.00;;;;;;5000422;28;20226;-77
2022/01/11 11:48:09;;;;;;;35.63;24.30;;;5.40;1.00;;;;;;5001814;28;20266;-79
2022/01/11 11:50:48;;;;;;;34.00;21.90;;;5.60;1.00;;;;;;4998568;28;20230;-79
2022/01/11 11:53:21;;;;;;;35.05;22.65;;;5.60;1.00;;;;;;5000511;28;20241;-79
2022/01/11 11:55:49;;;;;;;36.20;23.60;;;5.50;1.00;;;;;;5000397;28;20278;-77
2022/01/11 11:58:21;;;;;;;41.17;26.33;;;5.70;1.00;;;;;;5002961;28;20242;-79
2022/01/11 12:00:51;;;;;;;30.23;22.60;;;6.00;1.00;;;;;;4997139;28;20266;-77
2022/01/11 12:03:24;;;;;;;32.05;23.50;;;5.90;1.00;;;;;;5004425;28;20223;-84
2022/01/11 12:05:52;;;;;;;40.67;23.50;;;6.50;1.00;;;;;;5006551;28;20231;-83
2022/01/11 12:08:32;;;;;;;29.60;21.55;;;7.70;1.00;;;;;;4998285;28;20235;-83
2022/01/11 12:11:03;;;;;;;36.28;23.40;;;8.30;1.00;;;;;;4997930;28;20230;-82
2022/01/11 12:13:42;;;;;;;35.00;22.30;;;8.60;1.00;;;;;;4999384;28;20245;-82
2022/01/11 12:16:39;;;;;;;34.70;22.88;;;8.50;1.00;;;;;;4992471;28;20246;-80
2022/01/11 12:19:09;;;;;;;35.47;23.58;;;8.80;1.00;;;;;;4990299;28;21026;-81
2022/01/11 12:22:17;;;;;;;33.58;22.73;;;9.20;1.00;;;;;;4999471;28;20223;-83
2022/01/11 12:24:46;;;;;;;33.80;22.05;;;9.20;1.00;;;;;;5002768;28;20334;-83
2022/01/11 12:27:19;;;;;;;37.13;24.02;;;9.10;1.00;;;;;;4998978;28;20232;-79
2022/01/11 12:30:01;;;;;;;30.27;22.90;;;9.00;1.00;;;;;;5009993;28;20278;-82
2022/01/11 12:32:35;;;;;;;35.08;22.80;;;8.90;1.00;;;;;;5010172;28;20230;-88
2022/01/11 12:35:22;;;;;;;32.72;24.00;;;8.30;1.00;;;;;;4999370;28;20222;-82
2022/01/11 12:38:07;;;;;;;33.95;25.08;;;7.70;1.00;;;;;;5002657;28;20245;-81
2022/01/11 12:40:40;;;;;;;35.80;25.85;;;7.70;1.00;;;;;;5012122;28;20344;-80
2022/01/11 12:43:18;;;;;;;36.15;25.52;;;8.10;1.00;;;;;;5010460;28;20278;-79
2022/01/11 12:46:04;;;;;;;32.65;24.23;;;8.80;1.00;;;;;;5005875;28;20279;-80
2022/01/11 12:48:56;;;;;;;34.65;24.50;;;9.20;1.00;;;;;;4999179;28;20307;-79
2022/01/11 12:51:25;;;;;;;35.63;24.30;;;9.70;1.00;;;;;;4999849;28;20250;-81
2022/01/11 12:54:13;;;;;;;34.17;23.83;;;10.30;1.00;;;;;;4991909;28;20238;-76